Time;durP1;ratioP1;P1;durP2;ratioP2;P2;SDS_P1;SDS_P2;PMS_P1;PMS_P2;Temp;Humidity;BMP_temperature;BMP_pressure;BME280_temperature;BME280_humidity;BME280_pressure;Samples;Min_cycle;Max_cycle;Signal;HPM_P1;HPM_P2
2023/04/27 00:01:43;;;;;;;1.97;1.53;;;8.30;99.90;;;;;;5099719;28;20507;-55
2023/04/27 00:04:13;;;;;;;2.90;2.00;;;8.20;99.90;;;;;;5099898;28;20482;-56
2023/04/27 00:06:39;;;;;;;3.37;1.37;;;8.20;99.90;;;;;;5100625;28;20434;-57
2023/04/27 00:09:06;;;;;;;2.50;1.40;;;8.20;99.90;;;;;;5100111;28;20450;-54
2023/04/27 00:11:33;;;;;;;2.57;1.33;;;8.20;99.90;;;;;;5100027;28;20433;-55
2023/04/27 00:14:00;;;;;;;3.30;1.77;;;8.20;99.90;;;;;;5100053;28;20454;-55
2023/04/27 00:16:27;;;;;;;7.47;1.43;;;8.20;99.90;;;;;;5098546;28;20500;-49
2023/04/27 00:18:56;;;;;;;5.27;1.33;;;8.30;99.90;;;;;;5099742;28;20469;-52
2023/04/27 00:21:24;;;;;;;2.73;1.40;;;8.20;99.90;;;;;;5099243;28;20486;-52
2023/04/27 00:23:51;;;;;;;16.00;1.80;;;8.20;99.90;;;;;;5099338;28;20446;-52
2023/04/27 00:26:19;;;;;;;4.60;1.50;;;8.30;99.90;;;;;;5099451;28;20450;-52
2023/04/27 00:28:46;;;;;;;3.40;1.80;;;8.30;99.90;;;;;;5099615;28;20511;-57
2023/04/27 00:31:16;;;;;;;2.77;1.37;;;8.30;99.90;;;;;;5099172;28;20482;-55
2023/04/27 00:33:42;;;;;;;7.93;2.93;;;8.40;99.90;;;;;;5099443;28;20470;-55
2023/04/27 00:36:09;;;;;;;7.43;1.90;;;8.30;99.90;;;;;;5099148;28;20442;-57
2023/04/27 00:38:38;;;;;;;11.03;1.90;;;8.30;99.90;;;;;;5100047;28;20423;-56
2023/04/27 00:41:06;;;;;;;2.20;1.70;;;8.30;99.90;;;;;;5099434;28;20465;-57
2023/04/27 00:43:33;;;;;;;4.53;1.57;;;8.30;99.90;;;;;;5099329;28;20439;-55
2023/04/27 00:46:00;;;;;;;4.77;2.13;;;8.30;99.90;;;;;;5098901;28;20470;-59
2023/04/27 00:48:27;;;;;;;1.80;1.30;;;8.30;99.90;;;;;;5098733;28;20422;-55
2023/04/27 00:50:54;;;;;;;3.40;2.03;;;8.30;99.90;;;;;;5098682;28;20502;-58
2023/04/27 00:53:23;;;;;;;4.70;1.50;;;8.30;99.90;;;;;;5098626;28;20477;-56
2023/04/27 00:55:51;;;;;;;2.03;1.50;;;8.30;99.90;;;;;;5098749;28;20426;-57
2023/04/27 00:58:18;;;;;;;1.93;1.30;;;8.30;99.90;;;;;;5098654;28;20454;-55
2023/04/27 01:00:45;;;;;;;4.30;1.40;;;8.30;99.90;;;;;;5098852;28;20407;-57
2023/04/27 01:03:12;;;;;;;3.57;1.77;;;8.40;99.90;;;;;;5098557;28;20430;-57
2023/04/27 01:05:39;;;;;;;2.50;1.40;;;8.40;99.90;;;;;;5098267;28;20492;-56
2023/04/27 01:08:06;;;;;;;2.20;1.77;;;8.40;99.90;;;;;;5098202;28;20442;-56
2023/04/27 01:10:33;;;;;;;1.37;1.23;;;8.40;99.90;;;;;;5098641;28;20494;-51
2023/04/27 01:13:01;;;;;;;2.60;1.30;;;8.30;99.90;;;;;;5098523;28;20439;-55
2023/04/27 01:15:28;;;;;;;2.00;1.20;;;8.30;99.90;;;;;;5098009;28;20447;-53
2023/04/27 01:17:59;;;;;;;7.77;2.37;;;8.30;99.90;;;;;;5098272;28;20494;-56
2023/04/27 01:20:29;;;;;;;2.07;1.33;;;8.30;99.90;;;;;;5098260;28;20426;-53
2023/04/27 01:22:56;;;;;;;4.00;1.40;;;8.30;99.90;;;;;;5097995;28;20470;-59
2023/04/27 01:25:24;;;;;;;2.63;1.47;;;8.20;99.90;;;;;;5098548;28;20438;-57
2023/04/27 01:27:51;;;;;;;3.30;2.03;;;8.20;99.90;;;;;;5097837;28;20495;-56
2023/04/27 01:30:18;;;;;;;5.73;1.30;;;8.20;99.90;;;;;;5098184;28;20469;-58
2023/04/27 01:32:45;;;;;;;8.27;2.20;;;8.10;99.90;;;;;;5098022;28;20418;-57
2023/04/27 01:35:12;;;;;;;8.73;1.63;;;8.20;99.90;;;;;;5097905;28;20463;-59
2023/04/27 01:37:38;;;;;;;9.20;1.60;;;8.10;99.90;;;;;;5097856;28;20438;-57
2023/04/27 01:40:07;;;;;;;11.00;3.03;;;8.10;99.90;;;;;;5097611;28;20470;-57
2023/04/27 01:42:35;;;;;;;2.63;1.33;;;8.10;99.90;;;;;;5097991;28;20442;-58
2023/04/27 01:45:02;;;;;;;5.50;1.43;;;8.10;99.90;;;;;;5097854;28;20438;-58
2023/04/27 01:47:29;;;;;;;2.13;1.47;;;8.10;99.90;;;;;;5098018;28;20522;-56
2023/04/27 01:49:56;;;;;;;6.93;1.90;;;8.10;99.90;;;;;;5097730;28;20474;-56
2023/04/27 01:52:23;;;;;;;1.90;1.67;;;8.10;99.90;;;;;;5097627;28;20436;-56
2023/04/27 01:54:50;;;;;;;5.27;1.80;;;8.10;99.90;;;;;;5097827;28;20513;-55
2023/04/27 01:57:17;;;;;;;6.47;1.70;;;8.10;99.90;;;;;;5097421;28;20438;-59
2023/04/27 01:59:45;;;;;;;3.03;1.53;;;8.00;99.90;;;;;;5097391;28;20505;-56
2023/04/27 02:02:12;;;;;;;5.73;1.40;;;8.10;99.90;;;;;;5097791;28;20470;-58
2023/04/27 02:04:39;;;;;;;2.47;1.47;;;8.10;99.90;;;;;;5097558;28;20483;-56
2023/04/27 02:07:06;;;;;;;6.50;1.53;;;8.00;99.90;;;;;;5097342;28;20442;-57
2023/04/27 02:09:33;;;;;;;2.43;1.37;;;8.00;99.90;;;;;;5097701;28;20438;-57
2023/04/27 02:12:01;;;;;;;5.23;1.77;;;8.10;99.90;;;;;;5097062;28;20450;-58
2023/04/27 02:14:28;;;;;;;4.50;1.73;;;8.10;99.90;;;;;;5096069;28;20460;-55
2023/04/27 02:16:56;;;;;;;3.77;1.50;;;8.00;99.90;;;;;;5096928;28;20438;-55
2023/04/27 02:19:23;;;;;;;2.20;1.50;;;8.00;99.90;;;;;;5097094;28;20470;-55
2023/04/27 02:21:51;;;;;;;6.33;2.00;;;8.00;99.90;;;;;;5096966;28;20442;-55
2023/04/27 02:24:18;;;;;;;3.07;1.77;;;8.00;99.90;;;;;;5097337;28;20549;-58
2023/04/27 02:26:45;;;;;;;2.20;2.00;;;8.00;99.90;;;;;;5096730;28;20446;-51
2023/04/27 02:29:12;;;;;;;2.23;1.43;;;8.00;99.90;;;;;;5096721;28;20427;-50
2023/04/27 02:31:39;;;;;;;2.40;1.70;;;7.90;99.90;;;;;;5097115;28;20492;-56
2023/04/27 02:34:07;;;;;;;7.47;1.80;;;7.90;99.90;;;;;;5097665;28;20431;-55
2023/04/27 02:36:34;;;;;;;3.23;1.87;;;7.80;99.90;;;;;;5097432;28;20466;-54
2023/04/27 02:39:01;;;;;;;2.60;1.60;;;7.80;99.90;;;;;;5096758;28;20446;-56
2023/04/27 02:41:31;;;;;;;7.17;1.40;;;7.80;99.90;;;;;;5097277;28;20445;-54
2023/04/27 02:43:58;;;;;;;3.37;1.43;;;7.80;99.90;;;;;;5096988;28;20458;-58
2023/04/27 02:46:25;;;;;;;8.63;1.60;;;7.80;99.90;;;;;;5097320;28;20456;-57
2023/04/27 02:48:52;;;;;;;2.70;1.63;;;7.80;99.90;;;;;;5097210;28;20452;-58
2023/04/27 02:51:21;;;;;;;1.80;1.20;;;7.80;99.90;;;;;;5097810;28;20461;-52
2023/04/27 02:53:48;;;;;;;6.00;1.80;;;7.70;99.90;;;;;;5097006;28;20450;-57
2023/04/27 02:56:15;;;;;;;2.50;1.53;;;7.60;99.90;;;;;;5097095;28;20429;-53
2023/04/27 02:58:42;;;;;;;1.97;1.63;;;7.60;99.90;;;;;;5096875;28;20437;-56
2023/04/27 03:01:09;;;;;;;6.33;2.03;;;7.60;99.90;;;;;;5096706;28;20459;-55
2023/04/27 03:03:36;;;;;;;1.60;1.30;;;7.60;99.90;;;;;;5096587;28;20446;-55
2023/04/27 03:06:03;;;;;;;3.30;1.90;;;7.60;99.90;;;;;;5096460;28;20422;-58
2023/04/27 03:08:31;;;;;;;3.17;1.63;;;7.60;99.90;;;;;;5096459;28;20442;-55
2023/04/27 03:10:58;;;;;;;3.13;1.63;;;7.60;99.90;;;;;;5096212;28;20537;-53
2023/04/27 03:13:25;;;;;;;3.13;1.77;;;7.60;99.90;;;;;;5096653;28;20462;-57
2023/04/27 03:15:52;;;;;;;5.53;2.20;;;7.60;99.90;;;;;;5096418;28;20434;-57
2023/04/27 03:18:27;;;;;;;2.10;1.30;;;7.60;99.90;;;;;;5096305;28;20453;-55
2023/04/27 03:20:53;;;;;;;2.70;1.40;;;7.60;99.90;;;;;;5096811;28;20430;-56
2023/04/27 03:23:20;;;;;;;1.97;1.30;;;7.60;99.90;;;;;;5097015;28;20457;-54
2023/04/27 03:25:48;;;;;;;3.00;1.30;;;7.60;99.90;;;;;;5096515;28;20447;-58
2023/04/27 03:28:16;;;;;;;3.00;1.77;;;7.60;99.90;;;;;;5096372;28;20446;-56
2023/04/27 03:30:43;;;;;;;5.90;1.40;;;7.60;99.90;;;;;;5096441;28;20569;-57
2023/04/27 03:33:10;;;;;;;6.73;1.53;;;7.60;99.90;;;;;;5096676;28;20436;-55
2023/04/27 03:35:37;;;;;;;8.73;1.60;;;7.60;99.90;;;;;;5096685;28;20430;-57
2023/04/27 03:38:04;;;;;;;5.70;1.80;;;7.50;99.90;;;;;;5096495;28;20466;-56
2023/04/27 03:40:31;;;;;;;1.50;1.40;;;7.50;99.90;;;;;;5096209;28;20476;-54
2023/04/27 03:42:59;;;;;;;4.73;1.53;;;7.50;99.90;;;;;;5096195;28;20477;-56
2023/04/27 03:45:26;;;;;;;3.73;2.00;;;7.50;99.90;;;;;;5095970;28;20488;-56
2023/04/27 03:47:53;;;;;;;3.40;1.30;;;7.50;99.90;;;;;;5095943;28;20439;-57
2023/04/27 03:50:20;;;;;;;6.93;1.73;;;7.50;99.90;;;;;;5096876;28;20482;-52
2023/04/27 03:52:47;;;;;;;2.20;1.73;;;7.60;99.90;;;;;;5100167;28;20502;-55
2023/04/27 03:55:16;;;;;;;4.50;1.33;;;7.60;99.90;;;;;;5099875;28;20422;-52
2023/04/27 03:57:43;;;;;;;1.70;1.60;;;7.60;99.90;;;;;;5099529;28;20437;-54
2023/04/27 04:00:13;;;;;;;4.33;2.33;;;7.50;99.90;;;;;;5099459;28;20466;-57
2023/04/27 04:02:40;;;;;;;2.93;1.60;;;7.50;99.90;;;;;;5099974;28;20485;-53
2023/04/27 04:05:08;;;;;;;3.70;1.63;;;7.50;99.90;;;;;;5099671;28;20434;-58
2023/04/27 04:07:35;;;;;;;4.37;2.07;;;7.40;99.90;;;;;;5099874;28;20498;-57
2023/04/27 04:10:02;;;;;;;1.93;1.60;;;7.50;99.90;;;;;;5099247;28;20406;-55
2023/04/27 04:12:32;;;;;;;3.27;1.70;;;7.50;99.90;;;;;;5099458;28;20470;-53
2023/04/27 04:14:59;;;;;;;3.73;1.83;;;7.50;99.90;;;;;;5099355;28;20470;-59
2023/04/27 04:17:27;;;;;;;8.00;1.70;;;7.50;99.90;;;;;;5099444;28;20472;-55
2023/04/27 04:19:54;;;;;;;1.70;1.33;;;7.60;99.90;;;;;;5099214;28;20453;-57
2023/04/27 04:22:21;;;;;;;2.93;1.20;;;7.60;99.90;;;;;;5098857;28;20423;-59
2023/04/27 04:24:48;;;;;;;1.60;1.27;;;7.50;99.90;;;;;;5099594;28;20466;-57
2023/04/27 04:27:15;;;;;;;2.00;1.33;;;7.50;99.90;;;;;;5099457;28;20478;-54
2023/04/27 04:29:42;;;;;;;2.57;1.13;;;7.60;99.90;;;;;;5098896;28;20443;-59
2023/04/27 04:32:11;;;;;;;1.93;1.40;;;7.60;99.90;;;;;;5098949;28;20458;-58
2023/04/27 04:34:39;;;;;;;4.90;1.63;;;7.50;99.90;;;;;;5099464;28;20419;-57
2023/04/27 04:37:06;;;;;;;7.57;1.87;;;7.50;99.90;;;;;;5099172;28;20426;-58
2023/04/27 04:39:33;;;;;;;5.17;1.97;;;7.50;99.90;;;;;;5098763;28;20454;-56
2023/04/27 04:42:00;;;;;;;6.90;2.43;;;7.50;99.90;;;;;;5099092;28;20434;-58
2023/04/27 04:44:27;;;;;;;4.50;1.47;;;7.60;99.90;;;;;;5098863;28;20442;-59
2023/04/27 04:46:54;;;;;;;3.20;1.43;;;7.60;99.90;;;;;;5099058;28;20461;-55
2023/04/27 04:49:21;;;;;;;2.70;1.33;;;7.60;99.90;;;;;;5098820;28;20781;-58
2023/04/27 04:51:49;;;;;;;4.50;1.30;;;7.60;99.90;;;;;;5098857;28;20512;-58
2023/04/27 04:54:16;;;;;;;2.23;1.53;;;7.60;99.90;;;;;;5098949;28;20496;-55
2023/04/27 04:56:43;;;;;;;1.77;1.40;;;7.70;99.90;;;;;;5098420;28;20438;-53
2023/04/27 04:59:10;;;;;;;3.60;1.63;;;7.70;99.90;;;;;;5098816;28;20427;-52
2023/04/27 05:01:37;;;;;;;3.70;2.17;;;7.70;99.90;;;;;;5097594;28;20442;-55
2023/04/27 05:04:04;;;;;;;4.00;1.87;;;7.80;99.90;;;;;;5098566;28;20466;-54
2023/04/27 05:06:32;;;;;;;12.73;1.70;;;7.70;99.90;;;;;;5098633;28;20461;-59
2023/04/27 05:09:00;;;;;;;2.03;1.73;;;7.80;99.90;;;;;;5098175;28;20447;-56
2023/04/27 05:11:27;;;;;;;2.90;2.00;;;7.80;99.90;;;;;;5098747;28;20907;-52
2023/04/27 05:13:53;;;;;;;6.10;2.00;;;7.80;99.90;;;;;;5098384;28;20438;-55
2023/04/27 05:16:20;;;;;;;3.60;2.20;;;7.70;99.90;;;;;;5098493;28;20474;-56
2023/04/27 05:18:47;;;;;;;3.37;2.10;;;7.80;99.90;;;;;;5098450;28;20473;-55
2023/04/27 05:21:15;;;;;;;5.23;2.00;;;7.90;99.90;;;;;;5098260;28;20445;-53
2023/04/27 05:23:42;;;;;;;5.07;2.70;;;7.80;99.90;;;;;;5098523;28;20433;-56
2023/04/27 05:26:13;;;;;;;6.13;2.27;;;7.90;99.90;;;;;;5099101;28;20474;-52
2023/04/27 05:28:40;;;;;;;2.90;1.83;;;8.00;99.90;;;;;;5098688;28;20473;-55
2023/04/27 05:31:07;;;;;;;7.30;2.17;;;8.00;99.90;;;;;;5098751;28;20462;-54
2023/04/27 05:33:34;;;;;;;9.83;2.37;;;8.00;99.90;;;;;;5098316;28;20466;-55
2023/04/27 05:36:01;;;;;;;2.80;1.60;;;8.20;99.90;;;;;;5098403;28;20437;-55
2023/04/27 05:38:28;;;;;;;2.63;1.87;;;8.30;99.90;;;;;;5098338;28;20443;-58
2023/04/27 05:40:56;;;;;;;6.50;2.00;;;8.30;99.90;;;;;;5098012;28;20459;-57
2023/04/27 05:43:25;;;;;;;4.70;2.27;;;8.40;99.90;;;;;;5098175;28;20434;-57
2023/04/27 05:45:52;;;;;;;5.57;3.17;;;8.50;99.90;;;;;;5097710;28;20446;-51
2023/04/27 05:48:19;;;;;;;4.10;1.93;;;8.50;99.90;;;;;;5097768;28;20415;-56
2023/04/27 05:50:46;;;;;;;4.87;2.17;;;8.60;99.90;;;;;;5097355;28;20453;-54
2023/04/27 05:53:12;;;;;;;4.50;2.00;;;8.60;99.90;;;;;;5097852;28;20463;-56
2023/04/27 05:55:39;;;;;;;5.17;2.00;;;8.70;99.90;;;;;;5097634;28;20434;-55
2023/04/27 05:58:06;;;;;;;4.20;2.00;;;8.80;99.90;;;;;;5097408;28;20485;-54
2023/04/27 06:00:35;;;;;;;6.13;2.40;;;8.90;99.90;;;;;;5096612;28;20434;-57
2023/04/27 06:03:02;;;;;;;6.07;2.13;;;8.90;99.90;;;;;;5095643;28;20414;-58
2023/04/27 06:05:29;;;;;;;3.30;2.17;;;8.90;99.90;;;;;;5095746;28;20480;-57
2023/04/27 06:07:55;;;;;;;6.13;1.57;;;9.00;99.90;;;;;;5095718;28;20438;-57
2023/04/27 06:10:22;;;;;;;2.90;2.30;;;9.00;99.90;;;;;;5096248;28;20462;-54
2023/04/27 06:12:51;;;;;;;5.10;2.07;;;9.00;99.90;;;;;;5097264;28;20504;-58
2023/04/27 06:15:18;;;;;;;4.20;1.80;;;9.00;99.90;;;;;;5097066;28;20498;-56
2023/04/27 06:17:46;;;;;;;3.73;1.87;;;9.10;99.90;;;;;;5097608;28;20427;-58
2023/04/27 06:20:14;;;;;;;3.27;2.87;;;9.10;99.90;;;;;;5097253;28;20453;-53
2023/04/27 06:22:40;;;;;;;2.20;1.70;;;9.10;99.90;;;;;;5096903;28;20470;-55
2023/04/27 06:25:07;;;;;;;4.20;1.93;;;9.10;99.90;;;;;;5096979;28;20419;-56
2023/04/27 06:27:35;;;;;;;6.27;2.00;;;9.10;99.90;;;;;;5096930;28;20453;-57
2023/04/27 06:30:02;;;;;;;5.13;2.30;;;9.10;99.90;;;;;;5096432;28;20442;-48
2023/04/27 06:32:28;;;;;;;2.40;1.60;;;9.10;99.90;;;;;;5096416;28;20484;-51
2023/04/27 06:34:57;;;;;;;3.83;1.90;;;9.10;99.90;;;;;;5096051;28;20433;-52
2023/04/27 06:37:24;;;;;;;4.03;2.90;;;9.10;99.90;;;;;;5095945;28;20446;-55
2023/04/27 06:39:51;;;;;;;5.83;2.10;;;9.00;99.90;;;;;;5096257;28;20500;-51
2023/04/27 06:42:18;;;;;;;2.77;1.70;;;9.00;99.90;;;;;;5096755;28;20439;-54
2023/04/27 06:44:44;;;;;;;3.67;1.47;;;9.10;99.90;;;;;;5094924;28;20468;-54
2023/04/27 06:47:12;;;;;;;1.77;1.30;;;9.20;99.90;;;;;;5095217;28;20446;-51
2023/04/27 06:49:38;;;;;;;4.80;1.80;;;9.40;99.90;;;;;;5095453;28;20446;-49
2023/04/27 06:52:07;;;;;;;3.03;1.60;;;9.50;99.90;;;;;;5096495;28;20501;-55
2023/04/27 06:54:33;;;;;;;3.37;1.90;;;9.50;99.90;;;;;;5096600;28;20466;-51
2023/04/27 06:57:00;;;;;;;2.03;1.47;;;9.50;99.90;;;;;;5095602;28;20520;-53
2023/04/27 06:59:27;;;;;;;4.07;1.97;;;9.60;99.90;;;;;;5095849;28;20438;-52
2023/04/27 07:01:54;;;;;;;4.20;1.80;;;9.50;99.90;;;;;;5096119;28;20446;-52
2023/04/27 07:04:21;;;;;;;5.20;1.60;;;9.60;99.90;;;;;;5095030;28;20431;-54
2023/04/27 07:06:48;;;;;;;2.10;1.63;;;9.70;99.90;;;;;;5095134;28;20462;-56
2023/04/27 07:09:16;;;;;;;2.10;1.70;;;9.80;99.90;;;;;;5095711;28;20473;-55
2023/04/27 07:11:43;;;;;;;4.40;1.80;;;10.00;99.90;;;;;;5096197;28;20482;-52
2023/04/27 07:14:10;;;;;;;1.77;1.53;;;10.00;99.90;;;;;;5095787;28;20431;-54
2023/04/27 07:16:37;;;;;;;5.00;2.37;;;10.10;99.90;;;;;;5096148;28;20452;-53
2023/04/27 07:19:04;;;;;;;4.90;2.07;;;10.10;99.90;;;;;;5096556;28;20450;-56
2023/04/27 07:21:30;;;;;;;4.53;2.40;;;10.20;99.90;;;;;;5091539;28;20482;-51
2023/04/27 07:23:57;;;;;;;2.53;1.90;;;10.40;99.90;;;;;;5090648;28;20442;-57
2023/04/27 07:26:26;;;;;;;6.13;2.40;;;10.60;99.90;;;;;;5093460;28;20470;-55
2023/04/27 07:28:53;;;;;;;6.83;2.10;;;10.70;99.90;;;;;;5094521;28;20521;-57
2023/04/27 07:31:20;;;;;;;4.97;2.17;;;10.70;99.90;;;;;;5088452;28;20453;-55
2023/04/27 07:33:47;;;;;;;5.10;2.17;;;10.70;99.90;;;;;;5085432;28;20481;-53
2023/04/27 07:36:14;;;;;;;7.10;2.47;;;10.60;99.90;;;;;;5088664;28;20486;-54
2023/04/27 07:38:41;;;;;;;5.10;2.40;;;10.60;99.90;;;;;;5099869;28;20446;-57
2023/04/27 07:41:08;;;;;;;6.77;2.10;;;10.60;99.90;;;;;;5100068;28;20455;-56
2023/04/27 07:43:37;;;;;;;3.83;1.73;;;10.70;99.90;;;;;;5099369;28;20438;-55
2023/04/27 07:46:04;;;;;;;4.83;1.60;;;10.80;99.90;;;;;;5096749;28;20490;-56
2023/04/27 07:48:31;;;;;;;4.93;2.30;;;10.70;99.90;;;;;;5095002;28;20442;-59
2023/04/27 07:50:58;;;;;;;2.50;1.77;;;10.90;99.90;;;;;;5092659;28;20462;-57
2023/04/27 07:53:25;;;;;;;3.60;1.80;;;10.90;99.90;;;;;;5088192;28;20564;-54
2023/04/27 07:55:52;;;;;;;5.10;2.03;;;10.70;99.90;;;;;;5089047;28;20456;-55
2023/04/27 07:58:20;;;;;;;5.60;2.20;;;11.00;99.90;;;;;;5085678;28;20443;-52
2023/04/27 08:00:48;;;;;;;4.43;2.00;;;12.00;99.90;;;;;;5084852;28;20446;-56
2023/04/27 08:03:15;;;;;;;3.80;2.30;;;12.60;99.90;;;;;;5088354;28;20480;-56
2023/04/27 08:05:42;;;;;;;2.90;2.07;;;13.20;99.90;;;;;;5099173;28;20445;-56
2023/04/27 08:08:09;;;;;;;4.60;2.23;;;14.70;94.00;;;;;;5093265;28;20478;-57
2023/04/27 08:10:37;;;;;;;4.90;2.00;;;16.00;91.00;;;;;;5085859;28;20449;-58
2023/04/27 08:13:03;;;;;;;5.17;2.40;;;16.60;80.00;;;;;;5097540;28;20470;-57
2023/04/27 08:15:30;;;;;;;3.03;2.13;;;16.40;79.80;;;;;;5098565;28;20460;-57
2023/04/27 08:17:59;;;;;;;4.60;2.73;;;15.90;72.30;;;;;;5099109;28;20502;-59
2023/04/27 08:20:25;;;;;;;3.80;2.03;;;15.00;73.80;;;;;;5099805;28;20458;-57
2023/04/27 08:22:52;;;;;;;2.30;1.80;;;14.50;76.10;;;;;;5100065;28;20434;-61
2023/04/27 08:25:19;;;;;;;3.90;2.40;;;13.80;77.60;;;;;;5099633;28;20480;-61
2023/04/27 08:27:46;;;;;;;4.00;1.53;;;13.80;80.60;;;;;;5099852;28;20449;-57
2023/04/27 08:30:14;;;;;;;4.00;2.03;;;14.40;77.90;;;;;;5099409;28;20465;-60
2023/04/27 08:32:41;;;;;;;3.20;1.73;;;14.30;76.80;;;;;;5096683;28;20500;-59
2023/04/27 08:35:10;;;;;;;4.70;2.10;;;14.00;77.50;;;;;;5096717;28;20466;-59
2023/04/27 08:37:37;;;;;;;3.77;2.37;;;13.40;77.80;;;;;;5096232;28;20498;-55
2023/04/27 08:40:06;;;;;;;3.83;2.00;;;12.90;79.40;;;;;;5097594;28;20454;-58
2023/04/27 08:42:33;;;;;;;6.03;2.47;;;12.40;81.60;;;;;;5098293;28;20486;-58
2023/04/27 08:45:00;;;;;;;6.60;1.87;;;11.90;86.00;;;;;;5094012;28;20438;-59
2023/04/27 08:47:26;;;;;;;2.87;2.00;;;11.40;90.20;;;;;;5093927;28;20466;-60
2023/04/27 08:49:53;;;;;;;1.37;1.27;;;11.10;91.90;;;;;;5094426;28;20434;-57
2023/04/27 08:52:22;;;;;;;6.10;1.77;;;10.80;94.00;;;;;;5093891;28;20516;-58
2023/04/27 08:54:53;;;;;;;6.03;2.73;;;10.70;95.60;;;;;;5093966;28;20442;-57
2023/04/27 08:57:20;;;;;;;4.40;2.43;;;10.50;96.80;;;;;;5093833;28;20466;-58
2023/04/27 08:59:58;;;;;;;2.23;1.80;;;10.40;97.20;;;;;;5093008;28;20779;-59
2023/04/27 09:02:28;;;;;;;3.70;2.67;;;10.40;97.40;;;;;;5093033;28;20436;-59
2023/04/27 09:04:55;;;;;;;3.20;2.53;;;10.30;98.70;;;;;;5092879;28;20476;-60
2023/04/27 09:07:23;;;;;;;3.73;2.07;;;10.30;99.90;;;;;;5092369;28;20803;-61
2023/04/27 09:09:51;;;;;;;4.23;1.80;;;10.20;99.90;;;;;;5092760;28;20526;-57
2023/04/27 09:12:20;;;;;;;3.17;1.83;;;10.20;99.90;;;;;;5092864;28;20501;-57
2023/04/27 09:14:57;;;;;;;3.20;1.80;;;10.20;99.90;;;;;;5093899;28;20433;-56
2023/04/27 09:17:27;;;;;;;3.70;2.27;;;10.30;99.90;;;;;;5098349;28;20441;-55
2023/04/27 09:20:07;;;;;;;8.30;1.70;;;11.30;99.90;;;;;;5091983;28;20442;-59
2023/04/27 09:22:44;;;;;;;3.17;2.03;;;13.10;96.60;;;;;;5083557;28;20957;-61
2023/04/27 09:25:11;;;;;;;2.33;1.50;;;14.70;87.30;;;;;;5083580;28;20437;-59
2023/04/27 09:27:38;;;;;;;4.40;1.93;;;15.30;79.90;;;;;;5082210;28;20509;-58
2023/04/27 09:30:13;;;;;;;5.60;2.47;;;15.20;76.00;;;;;;5082796;28;20449;-57
2023/04/27 09:32:40;;;;;;;8.83;1.93;;;14.70;72.60;;;;;;5083481;28;20900;-58
2023/04/27 09:35:21;;;;;;;3.60;1.67;;;13.90;72.80;;;;;;5084961;28;20461;-60
2023/04/27 09:37:50;;;;;;;2.70;1.90;;;12.70;75.40;;;;;;5084163;28;20427;-58
2023/04/27 09:40:19;;;;;;;10.70;2.30;;;12.00;79.40;;;;;;5084443;28;20953;-59
2023/04/27 09:42:46;;;;;;;2.47;1.70;;;11.50;84.20;;;;;;5085425;28;20435;-59
2023/04/27 09:45:14;;;;;;;2.90;1.53;;;11.00;90.40;;;;;;5085365;28;20544;-57
2023/04/27 09:47:41;;;;;;;1.70;1.50;;;10.60;92.10;;;;;;5085625;28;20594;-60
2023/04/27 09:50:11;;;;;;;3.03;1.70;;;10.50;93.10;;;;;;5082715;28;20463;-59
2023/04/27 09:52:38;;;;;;;4.03;1.90;;;10.40;94.40;;;;;;5081523;28;20572;-58
2023/04/27 09:55:09;;;;;;;1.43;1.30;;;10.50;94.40;;;;;;5081568;28;20442;-60
2023/04/27 09:57:45;;;;;;;6.20;1.60;;;10.60;93.00;;;;;;5093502;28;20517;-55
2023/04/27 10:00:23;;;;;;;2.17;1.43;;;11.20;93.90;;;;;;5096580;28;20425;-58
2023/04/27 10:03:02;;;;;;;4.67;2.30;;;12.00;90.70;;;;;;5097265;28;20458;-56
2023/04/27 10:06:07;;;;;;;3.07;2.07;;;12.60;86.80;;;;;;5097682;28;20410;-59
2023/04/27 10:08:35;;;;;;;4.87;1.80;;;13.60;83.60;;;;;;5092319;28;20434;-58
2023/04/27 10:11:14;;;;;;;5.50;1.83;;;14.70;78.70;;;;;;5081179;28;20442;-61
2023/04/27 10:13:51;;;;;;;2.27;1.60;;;14.70;74.80;;;;;;5076617;28;20818;-57
2023/04/27 10:16:19;;;;;;;4.67;1.67;;;14.90;70.80;;;;;;5076716;28;20429;-58
2023/04/27 10:18:52;;;;;;;1.97;1.40;;;15.40;66.10;;;;;;5076691;28;20466;-61
2023/04/27 10:21:19;;;;;;;2.23;1.27;;;14.80;62.10;;;;;;5077425;28;20431;-60
2023/04/27 10:23:47;;;;;;;7.57;1.60;;;14.20;63.40;;;;;;5077344;28;20472;-60
2023/04/27 10:26:22;;;;;;;3.93;1.43;;;13.60;66.40;;;;;;5077236;28;20439;-55
2023/04/27 10:29:04;;;;;;;4.30;2.00;;;13.80;65.90;;;;;;5077666;28;20465;-59
2023/04/27 10:31:32;;;;;;;10.50;3.37;;;14.00;68.40;;;;;;5076818;28;20426;-60
2023/04/27 10:34:09;;;;;;;16.47;7.63;;;14.40;67.60;;;;;;5076020;28;20569;-59
2023/04/27 10:36:37;;;;;;;3.13;1.80;;;14.30;67.30;;;;;;5077314;28;20528;-57
2023/04/27 10:39:14;;;;;;;4.67;1.87;;;14.10;66.80;;;;;;5076954;28;20442;-60
2023/04/27 10:41:50;;;;;;;3.93;1.37;;;13.60;67.60;;;;;;5076881;28;20513;-58
2023/04/27 10:44:17;;;;;;;4.17;1.67;;;13.30;68.60;;;;;;5077130;28;20430;-58
2023/04/27 10:46:52;;;;;;;3.00;1.43;;;13.20;69.70;;;;;;5083953;28;20509;-60
2023/04/27 10:49:22;;;;;;;2.60;1.30;;;13.00;69.70;;;;;;5080834;28;20442;-59
2023/04/27 10:51:51;;;;;;;3.00;1.23;;;13.00;67.80;;;;;;5076461;28;20470;-60
2023/04/27 10:54:18;;;;;;;2.83;2.50;;;13.70;66.40;;;;;;5076629;28;20477;-60
2023/04/27 10:56:46;;;;;;;2.30;1.33;;;14.10;64.50;;;;;;5076922;28;20461;-58
2023/04/27 10:59:13;;;;;;;1.93;1.60;;;13.90;65.00;;;;;;5076265;28;20482;-58
2023/04/27 11:01:41;;;;;;;4.80;1.60;;;14.10;65.30;;;;;;5077153;28;20468;-59
2023/04/27 11:04:08;;;;;;;1.93;1.47;;;13.80;64.50;;;;;;5076717;28;20481;-59
2023/04/27 11:06:42;;;;;;;1.90;1.50;;;13.60;66.40;;;;;;5077202;28;20990;-59
2023/04/27 11:09:11;;;;;;;2.30;1.60;;;13.20;67.30;;;;;;5076563;28;20560;-60
2023/04/27 11:11:37;;;;;;;2.80;2.00;;;12.80;67.70;;;;;;5076799;28;20446;-60
2023/04/27 11:14:06;;;;;;;2.43;1.50;;;12.60;70.30;;;;;;5076492;28;20488;-61
2023/04/27 11:16:33;;;;;;;2.47;1.63;;;12.40;72.20;;;;;;5076586;28;20454;-61
2023/04/27 11:19:05;;;;;;;1.50;1.40;;;12.40;72.90;;;;;;5076868;28;20529;-58
2023/04/27 11:21:32;;;;;;;3.83;1.30;;;12.40;73.60;;;;;;5076913;28;20502;-62
2023/04/27 11:24:04;;;;;;;3.90;1.70;;;12.40;74.90;;;;;;5076171;28;20446;-60
2023/04/27 11:26:32;;;;;;;2.40;1.40;;;12.50;74.30;;;;;;5076912;28;20474;-60
2023/04/27 11:28:59;;;;;;;2.40;1.33;;;12.90;73.00;;;;;;5076699;28;20455;-59
2023/04/27 11:31:38;;;;;;;3.13;1.60;;;13.30;68.60;;;;;;5076147;28;20537;-60
2023/04/27 11:34:06;;;;;;;1.63;1.27;;;13.40;66.30;;;;;;5077219;28;20749;-60
2023/04/27 11:36:32;;;;;;;3.53;1.00;;;13.60;65.50;;;;;;5076308;28;20538;-60
2023/04/27 11:38:59;;;;;;;3.07;1.40;;;13.70;64.60;;;;;;5076391;28;20918;-58
2023/04/27 11:41:33;;;;;;;2.73;1.50;;;13.80;61.80;;;;;;5076059;28;20503;-62
2023/04/27 11:44:07;;;;;;;2.90;1.63;;;13.80;62.30;;;;;;5076199;28;20494;-58
2023/04/27 11:46:36;;;;;;;2.83;1.77;;;13.70;61.20;;;;;;5075917;28;20430;-61
2023/04/27 11:49:04;;;;;;;3.67;1.30;;;13.50;59.50;;;;;;5075114;28;20481;-59
2023/04/27 11:51:32;;;;;;;3.83;1.60;;;13.20;60.70;;;;;;5076029;28;20446;-59
2023/04/27 11:54:02;;;;;;;5.37;1.63;;;12.90;62.00;;;;;;5076129;28;20504;-58
2023/04/27 11:56:35;;;;;;;2.77;1.73;;;12.80;63.10;;;;;;5075950;28;20437;-57
2023/04/27 11:59:02;;;;;;;1.80;1.50;;;12.70;64.00;;;;;;5076146;28;20434;-60
2023/04/27 12:01:29;;;;;;;4.60;1.47;;;12.60;65.70;;;;;;5075653;28;20482;-60
2023/04/27 12:03:57;;;;;;;12.27;1.70;;;12.60;66.50;;;;;;5075981;28;20434;-60
2023/04/27 12:06:25;;;;;;;1.93;1.20;;;12.50;66.90;;;;;;5076141;28;20516;-59
2023/04/27 12:08:52;;;;;;;2.73;1.40;;;12.40;66.80;;;;;;5076461;28;20446;-60
2023/04/27 12:11:19;;;;;;;4.17;1.47;;;12.30;67.60;;;;;;5077450;28;20552;-59
2023/04/27 12:13:47;;;;;;;2.20;1.50;;;12.20;68.70;;;;;;5079492;28;20494;-60
2023/04/27 12:16:14;;;;;;;2.27;1.50;;;12.30;68.80;;;;;;5079568;28;20444;-60
2023/04/27 12:18:40;;;;;;;2.03;1.10;;;12.40;67.90;;;;;;5079370;28;20478;-61
2023/04/27 12:21:09;;;;;;;4.87;1.53;;;12.40;66.70;;;;;;5080703;28;20457;-60
2023/04/27 12:23:36;;;;;;;1.70;1.20;;;12.20;63.10;;;;;;5079501;28;20558;-58
2023/04/27 12:26:03;;;;;;;2.63;1.50;;;12.30;63.30;;;;;;5080024;28;20457;-58
2023/04/27 12:28:30;;;;;;;2.47;1.30;;;12.20;63.90;;;;;;5079947;28;20576;-60
2023/04/27 12:30:57;;;;;;;1.40;1.10;;;12.10;63.70;;;;;;5079519;28;20529;-61
2023/04/27 12:33:24;;;;;;;1.60;1.30;;;12.00;65.30;;;;;;5080373;28;20591;-61
2023/04/27 12:35:51;;;;;;;2.60;1.50;;;11.90;66.80;;;;;;5079686;28;20457;-60
2023/04/27 12:38:19;;;;;;;1.30;1.13;;;12.00;67.80;;;;;;5080390;28;20452;-60
2023/04/27 12:40:46;;;;;;;5.57;1.13;;;12.00;68.70;;;;;;5079465;28;20489;-58
2023/04/27 12:43:13;;;;;;;3.27;1.63;;;12.10;69.20;;;;;;5079527;28;20961;-59
2023/04/27 12:45:40;;;;;;;1.70;1.30;;;12.00;68.00;;;;;;5079677;28;20478;-57
2023/04/27 12:48:07;;;;;;;1.53;1.17;;;12.20;68.60;;;;;;5079158;28;20423;-60
2023/04/27 12:50:37;;;;;;;1.83;1.30;;;12.30;66.80;;;;;;5079487;28;20457;-60
2023/04/27 12:53:04;;;;;;;3.10;1.17;;;12.30;62.50;;;;;;5078873;28;20454;-58
2023/04/27 12:55:32;;;;;;;1.67;1.20;;;12.30;61.50;;;;;;5079031;28;20462;-61
2023/04/27 12:57:59;;;;;;;2.30;2.00;;;12.40;60.30;;;;;;5079027;28;20494;-58